sensor_id;sensor_type;location;lat;lon;timestamp;temperature;humidity
52725;DHT22;38621;52.830;6.914;2023-08-31T00:00:34;10.70;99.90
52725;DHT22;38621;52.830;6.914;2023-08-31T00:03:01;10.70;99.90
52725;DHT22;38621;52.830;6.914;2023-08-31T00:05:28;10.60;99.90
52725;DHT22;38621;52.830;6.914;2023-08-31T00:07:56;10.60;99.90
52725;DHT22;38621;52.830;6.914;2023-08-31T00:10:21;10.50;99.90
52725;DHT22;38621;52.830;6.914;2023-08-31T00:12:47;10.40;99.90
52725;DHT22;38621;52.830;6.914;2023-08-31T00:15:14;10.30;99.90
52725;DHT22;38621;52.830;6.914;2023-08-31T00:17:40;10.30;99.90
52725;DHT22;38621;52.830;6.914;2023-08-31T00:20:07;10.30;99.90
52725;DHT22;38621;52.830;6.914;2023-08-31T00:22:37;10.30;99.90
52725;DHT22;38621;52.830;6.914;2023-08-31T00:25:04;10.30;99.90
52725;DHT22;38621;52.830;6.914;2023-08-31T00:27:31;10.40;99.90
52725;DHT22;38621;52.830;6.914;2023-08-31T00:29:56;10.40;99.90
52725;DHT22;38621;52.830;6.914;2023-08-31T00:32:23;10.30;99.90
52725;DHT22;38621;52.830;6.914;2023-08-31T00:34:50;10.40;99.90
52725;DHT22;38621;52.830;6.914;2023-08-31T00:37:16;10.40;99.90
52725;DHT22;38621;52.830;6.914;2023-08-31T00:39:42;10.40;99.90
52725;DHT22;38621;52.830;6.914;2023-08-31T00:42:08;10.50;99.90
52725;DHT22;38621;52.830;6.914;2023-08-31T00:44:34;10.50;99.90
52725;DHT22;38621;52.830;6.914;2023-08-31T00:47:00;10.50;99.90
52725;DHT22;38621;52.830;6.914;2023-08-31T00:49:28;10.50;99.90
52725;DHT22;38621;52.830;6.914;2023-08-31T00:51:53;10.50;99.90
52725;DHT22;38621;52.830;6.914;2023-08-31T00:54:22;10.50;99.90
52725;DHT22;38621;52.830;6.914;2023-08-31T00:56:54;10.50;99.90
52725;DHT22;38621;52.830;6.914;2023-08-31T00:59:20;10.60;99.90
52725;DHT22;38621;52.830;6.914;2023-08-31T01:04:38;10.70;99.90
52725;DHT22;38621;52.830;6.914;2023-08-31T01:13:03;10.70;99.90
52725;DHT22;38621;52.830;6.914;2023-08-31T01:15:30;10.70;99.90
52725;DHT22;38621;52.830;6.914;2023-08-31T01:17:58;10.60;99.90
52725;DHT22;38621;52.830;6.914;2023-08-31T01:20:34;10.60;99.90
52725;DHT22;38621;52.830;6.914;2023-08-31T01:23:10;10.50;99.90
52725;DHT22;38621;52.830;6.914;2023-08-31T01:25:36;10.50;99.90
52725;DHT22;38621;52.830;6.914;2023-08-31T01:28:03;10.50;99.90
52725;DHT22;38621;52.830;6.914;2023-08-31T01:30:32;10.50;99.90
52725;DHT22;38621;52.830;6.914;2023-08-31T01:32:58;10.40;99.90
52725;DHT22;38621;52.830;6.914;2023-08-31T01:35:25;10.40;99.90
52725;DHT22;38621;52.830;6.914;2023-08-31T01:37:57;10.40;99.90
52725;DHT22;38621;52.830;6.914;2023-08-31T01:42:53;10.30;99.90
52725;DHT22;38621;52.830;6.914;2023-08-31T01:45:21;10.30;99.90
52725;DHT22;38621;52.830;6.914;2023-08-31T01:47:47;10.20;99.90
52725;DHT22;38621;52.830;6.914;2023-08-31T01:50:13;10.20;99.90
52725;DHT22;38621;52.830;6.914;2023-08-31T01:52:39;10.20;99.90
52725;DHT22;38621;52.830;6.914;2023-08-31T01:55:05;10.20;99.90
52725;DHT22;38621;52.830;6.914;2023-08-31T01:57:31;10.30;99.90
52725;DHT22;38621;52.830;6.914;2023-08-31T01:59:58;10.30;99.90
52725;DHT22;38621;52.830;6.914;2023-08-31T02:02:24;10.40;99.90
52725;DHT22;38621;52.830;6.914;2023-08-31T02:04:50;10.40;99.90
52725;DHT22;38621;52.830;6.914;2023-08-31T02:07:18;10.40;99.90
52725;DHT22;38621;52.830;6.914;2023-08-31T02:09:44;10.40;99.90
52725;DHT22;38621;52.830;6.914;2023-08-31T02:12:10;10.50;99.90
52725;DHT22;38621;52.830;6.914;2023-08-31T02:14:36;10.50;99.90
52725;DHT22;38621;52.830;6.914;2023-08-31T02:17:02;10.50;99.90
52725;DHT22;38621;52.830;6.914;2023-08-31T02:19:28;10.50;99.90
52725;DHT22;38621;52.830;6.914;2023-08-31T02:21:53;10.50;99.90
52725;DHT22;38621;52.830;6.914;2023-08-31T02:24:19;10.50;99.90
52725;DHT22;38621;52.830;6.914;2023-08-31T02:26:45;10.50;99.90
52725;DHT22;38621;52.830;6.914;2023-08-31T02:29:11;10.50;99.90
52725;DHT22;38621;52.830;6.914;2023-08-31T02:31:36;10.50;99.90
52725;DHT22;38621;52.830;6.914;2023-08-31T02:34:03;10.50;99.90
52725;DHT22;38621;52.830;6.914;2023-08-31T02:36:29;10.60;99.90
52725;DHT22;38621;52.830;6.914;2023-08-31T02:38:56;10.60;99.90
52725;DHT22;38621;52.830;6.914;2023-08-31T02:41:22;10.60;99.90
52725;DHT22;38621;52.830;6.914;2023-08-31T02:43:51;10.60;99.90
52725;DHT22;38621;52.830;6.914;2023-08-31T02:46:17;10.70;99.90
52725;DHT22;38621;52.830;6.914;2023-08-31T02:48:44;10.80;99.90
52725;DHT22;38621;52.830;6.914;2023-08-31T02:51:09;10.80;99.90
52725;DHT22;38621;52.830;6.914;2023-08-31T02:53:35;10.90;99.90
52725;DHT22;38621;52.830;6.914;2023-08-31T02:56:01;10.90;99.90
52725;DHT22;38621;52.830;6.914;2023-08-31T02:58:27;10.90;99.90
52725;DHT22;38621;52.830;6.914;2023-08-31T03:00:53;10.90;99.90
52725;DHT22;38621;52.830;6.914;2023-08-31T03:03:19;10.90;99.90
52725;DHT22;38621;52.830;6.914;2023-08-31T03:05:45;10.90;99.90
52725;DHT22;38621;52.830;6.914;2023-08-31T03:08:11;10.90;99.90
52725;DHT22;38621;52.830;6.914;2023-08-31T03:10:38;10.80;99.90
52725;DHT22;38621;52.830;6.914;2023-08-31T03:13:04;10.70;99.90
52725;DHT22;38621;52.830;6.914;2023-08-31T03:15:31;10.70;99.90
52725;DHT22;38621;52.830;6.914;2023-08-31T03:17:57;10.60;99.90
52725;DHT22;38621;52.830;6.914;2023-08-31T03:20:23;10.60;99.90
52725;DHT22;38621;52.830;6.914;2023-08-31T03:22:48;10.60;99.90
52725;DHT22;38621;52.830;6.914;2023-08-31T03:25:14;10.60;99.90
52725;DHT22;38621;52.830;6.914;2023-08-31T03:27:40;10.50;99.90
52725;DHT22;38621;52.830;6.914;2023-08-31T03:30:06;10.50;99.90
52725;DHT22;38621;52.830;6.914;2023-08-31T03:32:32;10.40;99.90
52725;DHT22;38621;52.830;6.914;2023-08-31T03:34:57;10.50;99.90
52725;DHT22;38621;52.830;6.914;2023-08-31T03:37:23;10.40;99.90
52725;DHT22;38621;52.830;6.914;2023-08-31T03:39:49;10.40;99.90
52725;DHT22;38621;52.830;6.914;2023-08-31T03:42:14;10.40;99.90
52725;DHT22;38621;52.830;6.914;2023-08-31T03:44:40;10.40;99.90
52725;DHT22;38621;52.830;6.914;2023-08-31T03:47:06;10.40;99.90
52725;DHT22;38621;52.830;6.914;2023-08-31T03:49:32;10.40;99.90
52725;DHT22;38621;52.830;6.914;2023-08-31T03:51:59;10.40;99.90
52725;DHT22;38621;52.830;6.914;2023-08-31T03:54:24;10.40;99.90
52725;DHT22;38621;52.830;6.914;2023-08-31T03:56:50;10.40;99.90
52725;DHT22;38621;52.830;6.914;2023-08-31T03:59:16;10.50;99.90
52725;DHT22;38621;52.830;6.914;2023-08-31T04:01:42;10.50;99.90
52725;DHT22;38621;52.830;6.914;2023-08-31T04:04:07;10.60;99.90
52725;DHT22;38621;52.830;6.914;2023-08-31T04:06:34;10.60;99.90
52725;DHT22;38621;52.830;6.914;2023-08-31T04:08:59;10.60;99.90
52725;DHT22;38621;52.830;6.914;2023-08-31T04:11:25;10.70;99.90
52725;DHT22;38621;52.830;6.914;2023-08-31T04:13:52;10.70;99.90
52725;DHT22;38621;52.830;6.914;2023-08-31T04:16:17;10.70;99.90
52725;DHT22;38621;52.830;6.914;2023-08-31T04:18:43;10.70;99.90
52725;DHT22;38621;52.830;6.914;2023-08-31T04:21:10;10.70;99.90
52725;DHT22;38621;52.830;6.914;2023-08-31T04:23:36;10.70;99.90
52725;DHT22;38621;52.830;6.914;2023-08-31T04:26:12;10.60;99.90
52725;DHT22;38621;52.830;6.914;2023-08-31T04:28:40;10.60;99.90
52725;DHT22;38621;52.830;6.914;2023-08-31T04:31:07;10.60;99.90
52725;DHT22;38621;52.830;6.914;2023-08-31T04:33:37;10.60;99.90
52725;DHT22;38621;52.830;6.914;2023-08-31T04:36:06;10.60;99.90
52725;DHT22;38621;52.830;6.914;2023-08-31T04:38:33;10.70;99.90
52725;DHT22;38621;52.830;6.914;2023-08-31T04:40:59;10.70;99.90
52725;DHT22;38621;52.830;6.914;2023-08-31T04:43:25;10.80;99.90
52725;DHT22;38621;52.830;6.914;2023-08-31T04:45:52;10.80;99.90
52725;DHT22;38621;52.830;6.914;2023-08-31T04:48:17;10.80;99.90
52725;DHT22;38621;52.830;6.914;2023-08-31T04:50:43;10.70;99.90
52725;DHT22;38621;52.830;6.914;2023-08-31T04:53:09;10.70;99.90
52725;DHT22;38621;52.830;6.914;2023-08-31T04:55:34;10.70;99.90
52725;DHT22;38621;52.830;6.914;2023-08-31T04:58:00;10.70;99.90
52725;DHT22;38621;52.830;6.914;2023-08-31T05:00:26;10.70;99.90
52725;DHT22;38621;52.830;6.914;2023-08-31T05:02:51;10.70;99.90
52725;DHT22;38621;52.830;6.914;2023-08-31T05:05:17;10.70;99.90
52725;DHT22;38621;52.830;6.914;2023-08-31T05:07:44;10.70;99.90
52725;DHT22;38621;52.830;6.914;2023-08-31T05:10:10;10.70;99.90
52725;DHT22;38621;52.830;6.914;2023-08-31T05:12:36;10.70;99.90
52725;DHT22;38621;52.830;6.914;2023-08-31T05:15:01;10.70;99.90
52725;DHT22;38621;52.830;6.914;2023-08-31T05:17:28;10.80;99.90
52725;DHT22;38621;52.830;6.914;2023-08-31T05:19:54;10.80;99.90
52725;DHT22;38621;52.830;6.914;2023-08-31T05:22:19;10.80;99.90
52725;DHT22;38621;52.830;6.914;2023-08-31T05:24:45;10.80;99.90
52725;DHT22;38621;52.830;6.914;2023-08-31T05:27:11;10.80;99.90
52725;DHT22;38621;52.830;6.914;2023-08-31T05:29:36;10.80;99.90
52725;DHT22;38621;52.830;6.914;2023-08-31T05:32:02;10.80;99.90
52725;DHT22;38621;52.830;6.914;2023-08-31T05:34:28;10.80;99.90
52725;DHT22;38621;52.830;6.914;2023-08-31T05:36:54;10.80;99.90
52725;DHT22;38621;52.830;6.914;2023-08-31T05:39:19;10.80;99.90
52725;DHT22;38621;52.830;6.914;2023-08-31T05:41:45;10.80;99.90
52725;DHT22;38621;52.830;6.914;2023-08-31T05:44:11;10.90;99.90
52725;DHT22;38621;52.830;6.914;2023-08-31T05:46:37;11.00;99.90
52725;DHT22;38621;52.830;6.914;2023-08-31T05:49:04;11.00;99.90
52725;DHT22;38621;52.830;6.914;2023-08-31T05:51:29;11.10;99.90
52725;DHT22;38621;52.830;6.914;2023-08-31T05:53:55;11.10;99.90
52725;DHT22;38621;52.830;6.914;2023-08-31T05:56:21;11.20;99.90
52725;DHT22;38621;52.830;6.914;2023-08-31T05:58:46;11.30;99.90
52725;DHT22;38621;52.830;6.914;2023-08-31T06:01:13;11.40;99.90
52725;DHT22;38621;52.830;6.914;2023-08-31T06:03:38;11.50;99.90
52725;DHT22;38621;52.830;6.914;2023-08-31T06:06:04;11.50;99.90
52725;DHT22;38621;52.830;6.914;2023-08-31T06:08:30;11.50;99.90
52725;DHT22;38621;52.830;6.914;2023-08-31T06:10:56;11.60;99.90
52725;DHT22;38621;52.830;6.914;2023-08-31T06:13:21;11.70;99.90
52725;DHT22;38621;52.830;6.914;2023-08-31T06:15:47;11.80;99.90
52725;DHT22;38621;52.830;6.914;2023-08-31T06:18:13;11.80;99.90
52725;DHT22;38621;52.830;6.914;2023-08-31T06:20:39;11.90;99.90
52725;DHT22;38621;52.830;6.914;2023-08-31T06:23:05;11.90;99.90
52725;DHT22;38621;52.830;6.914;2023-08-31T06:25:31;12.00;99.90
52725;DHT22;38621;52.830;6.914;2023-08-31T06:27:57;12.10;99.90
52725;DHT22;38621;52.830;6.914;2023-08-31T06:30:23;12.10;99.90
52725;DHT22;38621;52.830;6.914;2023-08-31T06:32:50;12.10;99.90
52725;DHT22;38621;52.830;6.914;2023-08-31T06:35:16;12.20;99.90
52725;DHT22;38621;52.830;6.914;2023-08-31T06:37:42;12.20;99.90
52725;DHT22;38621;52.830;6.914;2023-08-31T06:40:08;12.30;99.90
52725;DHT22;38621;52.830;6.914;2023-08-31T06:42:38;12.30;99.90
52725;DHT22;38621;52.830;6.914;2023-08-31T06:45:05;12.40;99.90
52725;DHT22;38621;52.830;6.914;2023-08-31T06:47:32;12.40;99.90
52725;DHT22;38621;52.830;6.914;2023-08-31T06:49:58;12.50;99.90
52725;DHT22;38621;52.830;6.914;2023-08-31T06:52:25;12.60;99.90
52725;DHT22;38621;52.830;6.914;2023-08-31T06:54:51;12.70;99.90
52725;DHT22;38621;52.830;6.914;2023-08-31T06:57:21;12.70;99.90
52725;DHT22;38621;52.830;6.914;2023-08-31T06:59:47;12.80;99.90
52725;DHT22;38621;52.830;6.914;2023-08-31T07:02:13;12.90;99.90
52725;DHT22;38621;52.830;6.914;2023-08-31T07:04:39;13.00;99.90
52725;DHT22;38621;52.830;6.914;2023-08-31T07:07:06;13.10;99.90
52725;DHT22;38621;52.830;6.914;2023-08-31T07:09:31;13.20;99.90
52725;DHT22;38621;52.830;6.914;2023-08-31T07:11:57;13.20;99.90
52725;DHT22;38621;52.830;6.914;2023-08-31T07:14:23;13.30;99.90
52725;DHT22;38621;52.830;6.914;2023-08-31T07:16:49;13.30;99.90
52725;DHT22;38621;52.830;6.914;2023-08-31T07:19:15;13.40;99.90
52725;DHT22;38621;52.830;6.914;2023-08-31T07:21:41;13.50;99.90
52725;DHT22;38621;52.830;6.914;2023-08-31T07:24:07;13.50;99.90
52725;DHT22;38621;52.830;6.914;2023-08-31T07:26:33;13.60;99.90
52725;DHT22;38621;52.830;6.914;2023-08-31T07:29:01;13.70;99.90
52725;DHT22;38621;52.830;6.914;2023-08-31T07:31:30;13.80;99.90
52725;DHT22;38621;52.830;6.914;2023-08-31T07:33:56;13.90;99.90
52725;DHT22;38621;52.830;6.914;2023-08-31T07:36:22;14.10;99.90
52725;DHT22;38621;52.830;6.914;2023-08-31T07:38:47;14.20;99.90
52725;DHT22;38621;52.830;6.914;2023-08-31T07:41:13;14.20;99.90
52725;DHT22;38621;52.830;6.914;2023-08-31T07:43:39;14.20;99.90
52725;DHT22;38621;52.830;6.914;2023-08-31T07:46:04;14.30;99.90
52725;DHT22;38621;52.830;6.914;2023-08-31T07:48:30;14.40;99.90
52725;DHT22;38621;52.830;6.914;2023-08-31T07:50:56;14.40;99.90
52725;DHT22;38621;52.830;6.914;2023-08-31T07:53:22;14.50;99.90
52725;DHT22;38621;52.830;6.914;2023-08-31T07:55:55;14.40;99.90
52725;DHT22;38621;52.830;6.914;2023-08-31T07:58:22;14.50;99.90
52725;DHT22;38621;52.830;6.914;2023-08-31T08:00:48;14.50;99.90
52725;DHT22;38621;52.830;6.914;2023-08-31T08:03:14;14.60;99.90
52725;DHT22;38621;52.830;6.914;2023-08-31T08:05:40;14.70;99.90
52725;DHT22;38621;52.830;6.914;2023-08-31T08:08:07;14.80;99.90
52725;DHT22;38621;52.830;6.914;2023-08-31T08:10:32;14.80;99.90
52725;DHT22;38621;52.830;6.914;2023-08-31T08:12:58;14.90;99.90
52725;DHT22;38621;52.830;6.914;2023-08-31T08:15:24;15.00;99.90
52725;DHT22;38621;52.830;6.914;2023-08-31T08:17:50;15.20;99.90
52725;DHT22;38621;52.830;6.914;2023-08-31T08:20:16;15.30;99.90
52725;DHT22;38621;52.830;6.914;2023-08-31T08:22:42;15.30;99.90
52725;DHT22;38621;52.830;6.914;2023-08-31T08:25:09;15.50;99.90
52725;DHT22;38621;52.830;6.914;2023-08-31T08:27:34;15.60;99.90
52725;DHT22;38621;52.830;6.914;2023-08-31T08:30:02;15.60;99.90
52725;DHT22;38621;52.830;6.914;2023-08-31T08:32:28;15.50;99.90
52725;DHT22;38621;52.830;6.914;2023-08-31T08:34:54;15.50;99.90
52725;DHT22;38621;52.830;6.914;2023-08-31T08:37:19;15.70;99.90
52725;DHT22;38621;52.830;6.914;2023-08-31T08:39:49;15.90;99.90
52725;DHT22;38621;52.830;6.914;2023-08-31T08:42:17;15.90;99.90
52725;DHT22;38621;52.830;6.914;2023-08-31T08:44:44;15.70;99.90
52725;DHT22;38621;52.830;6.914;2023-08-31T08:47:11;15.60;99.90
52725;DHT22;38621;52.830;6.914;2023-08-31T08:49:37;15.60;99.90
52725;DHT22;38621;52.830;6.914;2023-08-31T08:52:04;15.70;99.90
52725;DHT22;38621;52.830;6.914;2023-08-31T08:54:30;15.80;99.90
52725;DHT22;38621;52.830;6.914;2023-08-31T08:56:56;15.80;99.90
52725;DHT22;38621;52.830;6.914;2023-08-31T08:59:24;15.80;99.90
52725;DHT22;38621;52.830;6.914;2023-08-31T09:01:50;15.90;99.90
52725;DHT22;38621;52.830;6.914;2023-08-31T09:04:15;16.10;99.90
52725;DHT22;38621;52.830;6.914;2023-08-31T09:06:41;16.30;99.90
52725;DHT22;38621;52.830;6.914;2023-08-31T09:09:10;16.50;99.90
52725;DHT22;38621;52.830;6.914;2023-08-31T09:11:36;16.60;99.90
52725;DHT22;38621;52.830;6.914;2023-08-31T09:14:15;16.80;99.90
52725;DHT22;38621;52.830;6.914;2023-08-31T09:16:47;17.00;99.90
52725;DHT22;38621;52.830;6.914;2023-08-31T09:19:23;17.00;99.90
52725;DHT22;38621;52.830;6.914;2023-08-31T09:21:50;16.70;99.90
52725;DHT22;38621;52.830;6.914;2023-08-31T09:24:16;16.40;99.90
52725;DHT22;38621;52.830;6.914;2023-08-31T09:26:48;16.10;99.90
52725;DHT22;38621;52.830;6.914;2023-08-31T09:29:14;15.90;99.90
52725;DHT22;38621;52.830;6.914;2023-08-31T09:31:43;15.60;99.90
52725;DHT22;38621;52.830;6.914;2023-08-31T09:34:10;15.10;99.90
52725;DHT22;38621;52.830;6.914;2023-08-31T09:36:36;14.40;99.90
52725;DHT22;38621;52.830;6.914;2023-08-31T09:39:02;14.00;99.90
52725;DHT22;38621;52.830;6.914;2023-08-31T09:41:28;13.70;99.90
52725;DHT22;38621;52.830;6.914;2023-08-31T09:43:54;13.60;99.90
52725;DHT22;38621;52.830;6.914;2023-08-31T09:46:20;13.60;99.90
52725;DHT22;38621;52.830;6.914;2023-08-31T09:48:47;13.90;99.90
52725;DHT22;38621;52.830;6.914;2023-08-31T09:51:14;14.30;99.90
52725;DHT22;38621;52.830;6.914;2023-08-31T09:53:48;14.50;99.90
52725;DHT22;38621;52.830;6.914;2023-08-31T09:56:19;14.50;99.90
52725;DHT22;38621;52.830;6.914;2023-08-31T09:58:46;14.50;99.90
52725;DHT22;38621;52.830;6.914;2023-08-31T10:01:12;14.60;99.90
52725;DHT22;38621;52.830;6.914;2023-08-31T10:03:38;14.70;99.90
52725;DHT22;38621;52.830;6.914;2023-08-31T10:06:04;14.90;99.90
52725;DHT22;38621;52.830;6.914;2023-08-31T10:08:30;15.00;99.90
52725;DHT22;38621;52.830;6.914;2023-08-31T10:10:59;15.20;99.90
52725;DHT22;38621;52.830;6.914;2023-08-31T10:13:35;15.40;99.90
52725;DHT22;38621;52.830;6.914;2023-08-31T10:16:04;15.50;99.90
52725;DHT22;38621;52.830;6.914;2023-08-31T10:18:30;15.70;99.90
52725;DHT22;38621;52.830;6.914;2023-08-31T10:20:57;15.90;99.90
52725;DHT22;38621;52.830;6.914;2023-08-31T10:23:23;16.00;99.90
52725;DHT22;38621;52.830;6.914;2023-08-31T10:28:23;16.00;99.90
52725;DHT22;38621;52.830;6.914;2023-08-31T10:31:02;16.00;99.90
52725;DHT22;38621;52.830;6.914;2023-08-31T10:33:34;16.10;99.90
52725;DHT22;38621;52.830;6.914;2023-08-31T10:36:00;16.20;99.90
52725;DHT22;38621;52.830;6.914;2023-08-31T10:38:31;16.40;99.90
52725;DHT22;38621;52.830;6.914;2023-08-31T10:51:36;17.70;99.90
52725;DHT22;38621;52.830;6.914;2023-08-31T10:59:27;17.10;99.90
52725;DHT22;38621;52.830;6.914;2023-08-31T11:02:06;17.10;99.90
52725;DHT22;38621;52.830;6.914;2023-08-31T11:04:52;17.00;99.90
52725;DHT22;38621;52.830;6.914;2023-08-31T11:07:19;17.10;99.90
52725;DHT22;38621;52.830;6.914;2023-08-31T11:09:46;17.10;99.90
52725;DHT22;38621;52.830;6.914;2023-08-31T11:12:12;17.00;99.90
52725;DHT22;38621;52.830;6.914;2023-08-31T11:14:39;16.70;99.90
52725;DHT22;38621;52.830;6.914;2023-08-31T11:17:05;16.20;99.90
52725;DHT22;38621;52.830;6.914;2023-08-31T11:19:32;15.50;99.90
52725;DHT22;38621;52.830;6.914;2023-08-31T11:21:59;14.80;99.90
52725;DHT22;38621;52.830;6.914;2023-08-31T11:24:25;14.40;99.90
52725;DHT22;38621;52.830;6.914;2023-08-31T11:26:52;14.40;99.90
52725;DHT22;38621;52.830;6.914;2023-08-31T11:29:18;14.60;99.90
52725;DHT22;38621;52.830;6.914;2023-08-31T11:31:44;14.90;99.90
52725;DHT22;38621;52.830;6.914;2023-08-31T11:34:17;15.10;99.90
52725;DHT22;38621;52.830;6.914;2023-08-31T11:36:45;15.40;99.90
52725;DHT22;38621;52.830;6.914;2023-08-31T11:39:14;15.70;99.90
52725;DHT22;38621;52.830;6.914;2023-08-31T11:41:42;16.00;99.90
52725;DHT22;38621;52.830;6.914;2023-08-31T11:44:11;16.30;99.90
52725;DHT22;38621;52.830;6.914;2023-08-31T11:46:39;16.60;99.90
52725;DHT22;38621;52.830;6.914;2023-08-31T11:49:06;16.90;99.90
52725;DHT22;38621;52.830;6.914;2023-08-31T11:51:33;16.80;99.90
52725;DHT22;38621;52.830;6.914;2023-08-31T11:54:01;16.70;99.90
52725;DHT22;38621;52.830;6.914;2023-08-31T11:56:41;16.60;99.90
52725;DHT22;38621;52.830;6.914;2023-08-31T11:59:09;16.50;99.90
52725;DHT22;38621;52.830;6.914;2023-08-31T12:01:38;16.50;99.90
52725;DHT22;38621;52.830;6.914;2023-08-31T12:04:10;16.50;99.90
52725;DHT22;38621;52.830;6.914;2023-08-31T12:06:36;16.60;99.90
52725;DHT22;38621;52.830;6.914;2023-08-31T12:09:02;16.60;99.90
52725;DHT22;38621;52.830;6.914;2023-08-31T12:11:30;16.80;99.90
52725;DHT22;38621;52.830;6.914;2023-08-31T12:14:00;17.20;99.90
52725;DHT22;38621;52.830;6.914;2023-08-31T12:16:35;17.50;99.90
52725;DHT22;38621;52.830;6.914;2023-08-31T12:19:04;17.60;99.90
52725;DHT22;38621;52.830;6.914;2023-08-31T12:21:33;17.70;99.90
52725;DHT22;38621;52.830;6.914;2023-08-31T12:23:59;17.70;99.90
52725;DHT22;38621;52.830;6.914;2023-08-31T12:26:26;17.70;99.90
52725;DHT22;38621;52.830;6.914;2023-08-31T12:28:52;17.60;99.90
52725;DHT22;38621;52.830;6.914;2023-08-31T12:31:17;17.40;99.90
52725;DHT22;38621;52.830;6.914;2023-08-31T12:33:43;17.50;99.90
52725;DHT22;38621;52.830;6.914;2023-08-31T12:36:09;17.50;99.90
52725;DHT22;38621;52.830;6.914;2023-08-31T12:38:35;17.50;99.90
52725;DHT22;38621;52.830;6.914;2023-08-31T12:41:00;17.50;99.90
52725;DHT22;38621;52.830;6.914;2023-08-31T12:43:28;17.60;99.90
52725;DHT22;38621;52.830;6.914;2023-08-31T12:45:57;17.70;99.90
52725;DHT22;38621;52.830;6.914;2023-08-31T12:48:23;17.60;99.90
52725;DHT22;38621;52.830;6.914;2023-08-31T12:50:49;17.50;99.90
52725;DHT22;38621;52.830;6.914;2023-08-31T12:53:15;17.30;99.90
52725;DHT22;38621;52.830;6.914;2023-08-31T12:55:41;17.20;99.90
52725;DHT22;38621;52.830;6.914;2023-08-31T12:58:07;17.30;99.90
52725;DHT22;38621;52.830;6.914;2023-08-31T13:00:32;17.30;99.90
52725;DHT22;38621;52.830;6.914;2023-08-31T13:02:59;17.50;99.90
52725;DHT22;38621;52.830;6.914;2023-08-31T13:05:26;17.40;99.90
52725;DHT22;38621;52.830;6.914;2023-08-31T13:07:54;17.30;99.90
52725;DHT22;38621;52.830;6.914;2023-08-31T13:10:20;17.10;99.90
52725;DHT22;38621;52.830;6.914;2023-08-31T13:12:46;17.10;99.90
52725;DHT22;38621;52.830;6.914;2023-08-31T13:15:12;17.10;99.90
52725;DHT22;38621;52.830;6.914;2023-08-31T13:17:38;17.30;99.90
52725;DHT22;38621;52.830;6.914;2023-08-31T13:20:05;17.60;99.90
52725;DHT22;38621;52.830;6.914;2023-08-31T13:22:30;17.90;99.90
52725;DHT22;38621;52.830;6.914;2023-08-31T13:24:57;18.10;99.90
52725;DHT22;38621;52.830;6.914;2023-08-31T13:27:22;18.10;99.90
52725;DHT22;38621;52.830;6.914;2023-08-31T13:29:48;18.10;99.90
52725;DHT22;38621;52.830;6.914;2023-08-31T13:32:14;18.00;99.90
52725;DHT22;38621;52.830;6.914;2023-08-31T13:34:40;17.90;99.90
52725;DHT22;38621;52.830;6.914;2023-08-31T13:37:05;18.00;99.90
52725;DHT22;38621;52.830;6.914;2023-08-31T13:39:33;18.00;99.90
52725;DHT22;38621;52.830;6.914;2023-08-31T13:41:59;17.80;99.90
52725;DHT22;38621;52.830;6.914;2023-08-31T13:44:28;17.40;99.90
52725;DHT22;38621;52.830;6.914;2023-08-31T13:46:53;17.00;99.90
52725;DHT22;38621;52.830;6.914;2023-08-31T13:49:19;16.50;99.90
52725;DHT22;38621;52.830;6.914;2023-08-31T13:51:45;16.30;99.90
52725;DHT22;38621;52.830;6.914;2023-08-31T13:54:11;16.20;99.90
52725;DHT22;38621;52.830;6.914;2023-08-31T13:56:37;16.20;99.90
52725;DHT22;38621;52.830;6.914;2023-08-31T13:59:03;16.30;99.90
52725;DHT22;38621;52.830;6.914;2023-08-31T14:01:29;16.40;99.90
52725;DHT22;38621;52.830;6.914;2023-08-31T14:03:55;16.10;99.90
52725;DHT22;38621;52.830;6.914;2023-08-31T14:06:21;15.20;99.90
52725;DHT22;38621;52.830;6.914;2023-08-31T14:08:47;14.30;99.90
52725;DHT22;38621;52.830;6.914;2023-08-31T14:11:13;13.70;99.90
52725;DHT22;38621;52.830;6.914;2023-08-31T14:13:39;13.60;99.90
52725;DHT22;38621;52.830;6.914;2023-08-31T14:16:06;13.50;99.90
52725;DHT22;38621;52.830;6.914;2023-08-31T14:18:32;13.70;99.90
52725;DHT22;38621;52.830;6.914;2023-08-31T14:20:58;13.90;99.90
52725;DHT22;38621;52.830;6.914;2023-08-31T14:23:25;14.10;99.90
52725;DHT22;38621;52.830;6.914;2023-08-31T14:25:51;14.30;99.90
52725;DHT22;38621;52.830;6.914;2023-08-31T14:28:16;14.50;99.90
52725;DHT22;38621;52.830;6.914;2023-08-31T14:30:42;14.60;99.90
52725;DHT22;38621;52.830;6.914;2023-08-31T14:33:08;14.70;99.90
52725;DHT22;38621;52.830;6.914;2023-08-31T14:35:38;15.00;99.90
52725;DHT22;38621;52.830;6.914;2023-08-31T14:38:04;15.30;99.90
52725;DHT22;38621;52.830;6.914;2023-08-31T14:40:30;15.50;99.90
52725;DHT22;38621;52.830;6.914;2023-08-31T14:42:56;15.60;99.90
52725;DHT22;38621;52.830;6.914;2023-08-31T14:45:22;15.50;99.90
52725;DHT22;38621;52.830;6.914;2023-08-31T14:47:47;15.50;99.90
52725;DHT22;38621;52.830;6.914;2023-08-31T14:50:13;15.50;99.90
52725;DHT22;38621;52.830;6.914;2023-08-31T14:52:39;15.40;99.90
52725;DHT22;38621;52.830;6.914;2023-08-31T14:55:05;15.40;99.90
52725;DHT22;38621;52.830;6.914;2023-08-31T14:57:30;15.40;99.90
52725;DHT22;38621;52.830;6.914;2023-08-31T14:59:56;15.50;99.90
52725;DHT22;38621;52.830;6.914;2023-08-31T15:02:24;15.60;99.90
52725;DHT22;38621;52.830;6.914;2023-08-31T15:04:50;15.70;99.90
52725;DHT22;38621;52.830;6.914;2023-08-31T15:07:17;15.80;99.90
52725;DHT22;38621;52.830;6.914;2023-08-31T15:09:43;15.80;99.90
52725;DHT22;38621;52.830;6.914;2023-08-31T15:12:09;16.00;99.90
52725;DHT22;38621;52.830;6.914;2023-08-31T15:14:35;16.00;99.90
52725;DHT22;38621;52.830;6.914;2023-08-31T15:17:00;15.90;99.90
52725;DHT22;38621;52.830;6.914;2023-08-31T15:19:26;15.70;99.90
52725;DHT22;38621;52.830;6.914;2023-08-31T15:21:52;15.50;99.90
52725;DHT22;38621;52.830;6.914;2023-08-31T15:24:17;15.40;99.90
52725;DHT22;38621;52.830;6.914;2023-08-31T15:26:43;15.40;99.90
52725;DHT22;38621;52.830;6.914;2023-08-31T15:29:09;15.40;99.90
52725;DHT22;38621;52.830;6.914;2023-08-31T15:31:35;15.50;99.90
52725;DHT22;38621;52.830;6.914;2023-08-31T15:34:01;15.60;99.90
52725;DHT22;38621;52.830;6.914;2023-08-31T15:36:26;15.70;99.90
52725;DHT22;38621;52.830;6.914;2023-08-31T15:38:52;15.70;99.90
52725;DHT22;38621;52.830;6.914;2023-08-31T15:41:18;15.80;99.90
52725;DHT22;38621;52.830;6.914;2023-08-31T15:43:44;15.90;99.90
52725;DHT22;38621;52.830;6.914;2023-08-31T15:46:10;16.00;99.90
52725;DHT22;38621;52.830;6.914;2023-08-31T15:48:35;16.30;99.90
52725;DHT22;38621;52.830;6.914;2023-08-31T15:51:01;16.60;99.90
52725;DHT22;38621;52.830;6.914;2023-08-31T15:53:28;17.30;99.90
52725;DHT22;38621;52.830;6.914;2023-08-31T15:55:55;18.20;99.90